createdAt,value
2018-04-20T00:00:27.970Z,69.20
2018-04-20T00:02:55.540Z,69.10
2018-04-20T00:05:23.126Z,69.10
2018-04-20T00:07:53.663Z,69.20
2018-04-20T00:10:21.247Z,69.20
2018-04-20T00:12:48.876Z,69.10
2018-04-20T00:15:17.223Z,69.10
2018-04-20T00:17:45.059Z,69.10
2018-04-20T00:20:12.641Z,69.10
2018-04-20T00:22:40.220Z,69.10
2018-04-20T00:25:08.897Z,69.10
2018-04-20T00:27:36.472Z,69.10
2018-04-20T00:30:04.146Z,69.10
2018-04-20T00:32:31.813Z,69.20
2018-04-20T00:35:00.198Z,69.10
2018-04-20T00:37:28.535Z,69.20
2018-04-20T00:39:56.113Z,69.10
2018-04-20T00:42:23.684Z,69.10
2018-04-20T00:44:51.362Z,69.00
2018-04-20T00:47:19.740Z,69.10
2018-04-20T00:49:48.121Z,69.10
2018-04-20T00:52:16.451Z,69.10
2018-04-20T00:54:44.029Z,69.10
2018-04-20T00:57:11.604Z,69.10
2018-04-20T00:59:40.307Z,69.10
2018-04-20T01:02:08.691Z,69.10
2018-04-20T01:04:37.035Z,69.10
2018-04-20T01:07:04.595Z,69.10
2018-04-20T01:09:32.183Z,69.10
2018-04-20T01:11:59.847Z,69.10
2018-04-20T01:14:28.194Z,69.10
2018-04-20T01:16:55.789Z,69.10
2018-04-20T01:19:24.135Z,69.10
2018-04-20T01:21:51.702Z,69.10
2018-04-20T01:24:19.279Z,69.10
2018-04-20T01:26:47.614Z,69.10
2018-04-20T01:29:15.234Z,69.10
2018-04-20T01:31:43.968Z,69.10
2018-04-20T01:34:11.543Z,69.00
2018-04-20T01:36:40.575Z,69.10
2018-04-20T01:39:09.571Z,69.10
2018-04-20T01:41:38.968Z,69.10
2018-04-20T01:44:06.535Z,69.00
2018-04-20T01:46:35.755Z,69.10
2018-04-20T01:49:03.391Z,69.10
2018-04-20T01:51:31.070Z,69.00
2018-04-20T01:53:59.412Z,69.00
2018-04-20T01:56:28.536Z,69.10
2018-04-20T01:58:56.921Z,69.00
2018-04-20T02:01:25.292Z,69.00
2018-04-20T02:03:53.676Z,69.40
2018-04-20T02:06:22.016Z,69.10
2018-04-20T02:08:49.595Z,69.00
2018-04-20T02:11:17.165Z,69.00
2018-04-20T02:13:44.740Z,69.00
2018-04-20T02:16:13.127Z,69.10
2018-04-20T02:18:41.467Z,69.10
2018-04-20T02:21:10.137Z,69.10
2018-04-20T02:23:38.179Z,69.00
2018-04-20T02:26:05.819Z,69.00
2018-04-20T02:28:34.199Z,69.80
2018-04-20T02:31:01.922Z,69.10
2018-04-20T02:33:30.257Z,69.10
2018-04-20T02:35:58.589Z,69.10
2018-04-20T02:38:26.165Z,69.10
2018-04-20T02:40:53.743Z,69.10
2018-04-20T02:43:22.085Z,69.10
2018-04-20T02:45:49.660Z,69.00
2018-04-20T02:48:17.251Z,69.10
2018-04-20T02:50:45.630Z,69.10
2018-04-20T02:53:13.963Z,69.10
2018-04-20T02:55:41.538Z,69.00
2018-04-20T02:58:09.875Z,69.00
2018-04-20T03:00:38.178Z,69.00
2018-04-20T03:03:05.747Z,69.00
2018-04-20T03:05:33.311Z,69.00
2018-04-20T03:08:00.887Z,69.00
2018-04-20T03:10:28.512Z,69.00
2018-04-20T03:12:56.815Z,69.00
2018-04-20T03:15:24.394Z,69.10
2018-04-20T03:17:51.968Z,69.00
2018-04-20T03:20:19.634Z,69.00
2018-04-20T03:22:47.965Z,69.80
2018-04-20T03:25:15.546Z,69.00
2018-04-20T03:27:43.170Z,69.10
2018-04-20T03:30:10.738Z,69.10
2018-04-20T03:32:39.351Z,69.10
2018-04-20T03:35:07.089Z,69.10
2018-04-20T03:37:34.671Z,69.10
2018-04-20T03:40:02.270Z,69.10
2018-04-20T03:42:30.648Z,69.10
2018-04-20T03:44:58.219Z,69.10
2018-04-20T03:47:26.563Z,69.90
2018-04-20T03:49:54.132Z,69.10
2018-04-20T03:52:21.812Z,69.10
2018-04-20T03:54:50.163Z,69.10
2018-04-20T03:57:17.732Z,69.10
2018-04-20T03:59:45.315Z,69.10
2018-04-20T04:02:12.983Z,69.00
2018-04-20T04:04:41.324Z,68.90
2018-04-20T04:07:10.104Z,68.90
2018-04-20T04:09:38.139Z,68.90
2018-04-20T04:12:05.740Z,68.90
2018-04-20T04:14:33.328Z,68.90
2018-04-20T04:17:12.818Z,68.90
2018-04-20T04:19:52.427Z,68.90
2018-04-20T04:22:32.579Z,69.60
2018-04-20T04:25:12.070Z,68.90
2018-04-20T04:27:46.648Z,69.60
2018-04-20T04:30:14.328Z,69.00
2018-04-20T04:32:42.679Z,69.00
2018-04-20T04:35:10.252Z,69.00
2018-04-20T04:37:39.235Z,69.00
2018-04-20T04:40:06.909Z,69.00
2018-04-20T04:42:35.285Z,69.10
2018-04-20T04:45:03.667Z,69.50
2018-04-20T04:47:31.330Z,69.00
2018-04-20T04:49:58.996Z,69.80
2018-04-20T04:52:27.375Z,69.20
2018-04-20T04:54:55.736Z,68.90
2018-04-20T04:57:23.302Z,68.90
2018-04-20T04:59:50.982Z,68.90
2018-04-20T05:02:19.377Z,69.00
2018-04-20T05:04:46.969Z,68.90
2018-04-20T05:07:14.588Z,68.90
2018-04-20T05:09:42.972Z,68.90
2018-04-20T05:12:11.323Z,68.90
2018-04-20T05:14:39.723Z,68.90
2018-04-20T05:17:08.796Z,69.00
2018-04-20T05:19:36.384Z,68.90
2018-04-20T05:22:04.752Z,68.90
2018-04-20T05:24:32.339Z,68.90
2018-04-20T05:27:00.680Z,68.80
2018-04-20T05:29:28.262Z,68.80
2018-04-20T05:31:56.607Z,68.90
2018-04-20T05:34:24.181Z,68.70
2018-04-20T05:36:51.770Z,68.60
2018-04-20T05:39:20.106Z,68.60
2018-04-20T05:41:47.671Z,68.60
2018-04-20T05:44:15.254Z,68.50
2018-04-20T05:46:42.828Z,68.50
2018-04-20T05:49:11.214Z,68.50
2018-04-20T05:51:39.691Z,68.50
2018-04-20T05:54:08.187Z,68.40
2018-04-20T05:56:35.784Z,68.40
2018-04-20T05:59:03.360Z,68.40
2018-04-20T06:01:34.736Z,68.40
2018-04-20T06:04:02.308Z,68.30
2018-04-20T06:06:30.647Z,68.40
2018-04-20T06:08:58.220Z,68.40
2018-04-20T06:11:25.799Z,68.30
2018-04-20T06:13:53.376Z,68.20
2018-04-20T06:16:21.710Z,68.30
2018-04-20T06:18:49.290Z,68.20
2018-04-20T06:21:16.884Z,68.30
2018-04-20T06:23:44.468Z,68.20
2018-04-20T06:26:12.047Z,68.10
2018-04-20T06:28:40.460Z,68.10
2018-04-20T06:31:08.125Z,68.10
2018-04-20T06:33:35.698Z,67.90
2018-04-20T06:36:04.079Z,67.90
2018-04-20T06:38:32.468Z,67.90
2018-04-20T06:41:00.843Z,68.60
2018-04-20T06:43:29.213Z,67.80
2018-04-20T06:45:56.879Z,67.80
2018-04-20T06:48:25.256Z,67.70
2018-04-20T06:50:52.836Z,67.70
2018-04-20T06:53:21.196Z,67.70
2018-04-20T06:55:49.575Z,68.40
2018-04-20T06:58:17.149Z,67.60
2018-04-20T07:00:45.490Z,67.50
2018-04-20T07:03:13.067Z,67.50
2018-04-20T07:05:40.751Z,67.50
2018-04-20T07:08:10.393Z,67.40
2018-04-20T07:10:39.131Z,67.40
2018-04-20T07:13:06.816Z,67.40
2018-04-20T07:15:35.159Z,67.40
2018-04-20T07:18:02.853Z,67.40
2018-04-20T07:20:31.179Z,67.40
2018-04-20T07:22:58.786Z,67.40
2018-04-20T07:25:26.351Z,67.40
2018-04-20T07:27:54.692Z,67.50
2018-04-20T07:30:22.299Z,67.40
2018-04-20T07:32:50.628Z,67.40
2018-04-20T07:35:18.239Z,67.40
2018-04-20T07:37:46.611Z,67.40
2018-04-20T07:40:14.280Z,67.30
2018-04-20T07:42:42.651Z,67.40
2018-04-20T07:45:10.231Z,67.40
2018-04-20T07:47:38.600Z,67.40
2018-04-20T07:50:06.951Z,67.30
2018-04-20T07:52:34.529Z,67.40
2018-04-20T07:55:02.883Z,67.50
2018-04-20T07:57:30.479Z,67.40
2018-04-20T07:59:58.870Z,67.50
2018-04-20T08:02:27.223Z,67.50
2018-04-20T08:04:54.808Z,67.50
2018-04-20T08:07:23.188Z,67.60
2018-04-20T08:09:51.539Z,67.60
2018-04-20T08:12:19.116Z,67.60
2018-04-20T08:14:47.459Z,67.60
2018-04-20T08:17:15.024Z,67.60
2018-04-20T08:19:42.742Z,67.60
2018-04-20T08:22:10.311Z,67.60
2018-04-20T08:24:39.072Z,67.60
2018-04-20T08:27:08.085Z,67.60
2018-04-20T08:29:35.731Z,67.60
2018-04-20T08:32:04.111Z,67.60
2018-04-20T08:34:32.507Z,67.60
2018-04-20T08:37:00.157Z,67.70
2018-04-20T08:39:28.500Z,67.60
2018-04-20T08:41:56.085Z,67.60
2018-04-20T08:44:23.764Z,67.60
2018-04-20T08:46:52.120Z,67.60
2018-04-20T08:49:19.699Z,67.60
2018-04-20T08:51:48.087Z,68.50
2018-04-20T08:54:16.429Z,68.50
2018-04-20T08:56:44.010Z,67.60
2018-04-20T08:59:11.707Z,67.60
2018-04-20T09:01:40.572Z,67.70
2018-04-20T09:04:10.196Z,68.10
2018-04-20T09:06:38.563Z,67.70
2018-04-20T09:09:06.946Z,68.50
2018-04-20T09:11:35.292Z,67.70
2018-04-20T09:14:02.867Z,67.70
2018-04-20T09:16:30.439Z,67.60
2018-04-20T09:18:58.007Z,67.60
2018-04-20T09:21:26.391Z,67.60
2018-04-20T09:23:54.740Z,67.70
2018-04-20T09:26:22.320Z,67.70
2018-04-20T09:28:49.995Z,67.60
2018-04-20T09:31:17.645Z,68.60
2018-04-20T09:33:45.324Z,67.70
2018-04-20T09:36:13.691Z,67.70
2018-04-20T09:38:42.071Z,67.70
2018-04-20T09:41:10.452Z,67.70
2018-04-20T09:43:39.851Z,67.70
2018-04-20T09:46:08.157Z,67.70
2018-04-20T09:48:35.744Z,67.70
2018-04-20T09:51:03.372Z,67.70
2018-04-20T09:53:31.015Z,67.70
2018-04-20T09:55:58.598Z,67.80
2018-04-20T09:58:26.954Z,67.80
2018-04-20T10:00:58.390Z,67.80
2018-04-20T10:03:35.877Z,67.70
2018-04-20T10:06:03.467Z,67.80
2018-04-20T10:08:31.129Z,67.70
2018-04-20T10:10:58.704Z,67.80
2018-04-20T10:13:27.051Z,67.80
2018-04-20T10:15:54.624Z,67.80
2018-04-20T10:18:22.300Z,67.70
2018-04-20T10:20:50.678Z,67.80
2018-04-20T10:23:18.257Z,67.80
2018-04-20T10:25:46.624Z,67.70
2018-04-20T10:28:14.982Z,68.50
2018-04-20T10:30:42.607Z,67.70
2018-04-20T10:33:10.227Z,67.40
2018-04-20T10:35:38.575Z,67.70
2018-04-20T10:38:06.153Z,67.70
2018-04-20T10:40:33.824Z,67.80
2018-04-20T10:43:02.211Z,67.70
2018-04-20T10:45:30.580Z,67.90
2018-04-20T10:47:58.143Z,67.90
2018-04-20T10:50:26.522Z,68.60
2018-04-20T10:52:55.599Z,67.90
2018-04-20T10:55:24.005Z,68.60
2018-04-20T10:57:52.367Z,67.70
2018-04-20T11:00:20.044Z,67.70
2018-04-20T11:02:47.720Z,67.70
2018-04-20T11:05:16.077Z,67.70
2018-04-20T11:07:43.644Z,67.70
2018-04-20T11:10:11.217Z,67.70
2018-04-20T11:12:40.821Z,67.70
2018-04-20T11:15:10.008Z,67.60
2018-04-20T11:17:38.107Z,67.60
2018-04-20T11:20:05.679Z,67.60
2018-04-20T11:22:33.255Z,67.60
2018-04-20T11:25:00.836Z,68.30
2018-04-20T11:27:28.409Z,67.60
2018-04-20T11:29:56.100Z,67.60
2018-04-20T11:32:24.488Z,67.60
2018-04-20T11:34:52.847Z,67.60
2018-04-20T11:37:21.239Z,67.60
2018-04-20T11:39:49.580Z,67.60
2018-04-20T11:42:17.192Z,67.50
2018-04-20T11:44:45.559Z,67.50
2018-04-20T11:47:13.942Z,67.60
2018-04-20T11:49:42.291Z,67.50
2018-04-20T11:52:09.864Z,67.50
2018-04-20T11:54:38.083Z,67.50
2018-04-20T11:57:05.722Z,67.50
2018-04-20T11:59:34.099Z,67.50
2018-04-20T12:02:02.440Z,67.50
2018-04-20T12:04:30.015Z,67.50
2018-04-20T12:06:57.704Z,67.50
2018-04-20T12:09:26.099Z,67.50
2018-04-20T12:11:53.752Z,67.50
2018-04-20T12:14:22.098Z,67.40
2018-04-20T12:16:49.675Z,67.40
2018-04-20T12:19:17.460Z,67.40
2018-04-20T12:21:45.801Z,67.40
2018-04-20T12:24:13.388Z,67.30
2018-04-20T12:26:41.743Z,68.00
2018-04-20T12:29:10.457Z,67.30
2018-04-20T12:31:39.764Z,67.40
2018-04-20T12:34:08.857Z,67.40
2018-04-20T12:36:37.203Z,67.30
2018-04-20T12:39:04.837Z,67.30
2018-04-20T12:41:32.407Z,67.30
2018-04-20T12:43:59.995Z,67.40
2018-04-20T12:46:27.571Z,67.30
2018-04-20T12:48:55.240Z,67.30
2018-04-20T12:51:22.926Z,67.30
2018-04-20T12:53:51.287Z,67.30
2018-04-20T12:56:19.635Z,67.30
2018-04-20T12:58:47.209Z,67.30
2018-04-20T13:01:15.607Z,67.40
2018-04-20T13:03:43.183Z,67.30
2018-04-20T13:06:11.556Z,67.40
2018-04-20T13:08:39.936Z,67.30
2018-04-20T13:11:09.209Z,67.30
2018-04-20T13:13:36.795Z,67.30
2018-04-20T13:16:05.144Z,67.30
2018-04-20T13:18:32.788Z,67.30
2018-04-20T13:21:00.372Z,67.30
2018-04-20T13:23:27.956Z,67.30
2018-04-20T13:25:55.628Z,67.30
2018-04-20T13:28:23.963Z,67.30
2018-04-20T13:30:51.580Z,67.30
2018-04-20T13:33:19.920Z,67.30
2018-04-20T13:35:47.500Z,67.30
2018-04-20T13:38:15.163Z,67.30
2018-04-20T13:40:42.827Z,67.90
2018-04-20T13:43:11.239Z,67.30
2018-04-20T13:45:40.184Z,67.30
2018-04-20T13:48:08.192Z,67.20
2018-04-20T13:50:36.546Z,67.20
2018-04-20T13:53:04.128Z,67.20
2018-04-20T13:55:32.487Z,67.30
2018-04-20T13:58:01.112Z,66.80
2018-04-20T14:00:28.739Z,67.30
2018-04-20T14:02:57.122Z,67.60
2018-04-20T14:05:25.459Z,67.30
2018-04-20T14:07:53.046Z,67.30
2018-04-20T14:10:20.614Z,67.20
2018-04-20T14:12:48.206Z,67.20
2018-04-20T14:15:15.775Z,67.30
2018-04-20T14:17:43.406Z,67.30
2018-04-20T14:20:11.080Z,67.30
2018-04-20T14:22:40.788Z,67.40
2018-04-20T14:25:09.699Z,67.40
2018-04-20T14:27:37.336Z,67.40
2018-04-20T14:30:05.748Z,67.30
2018-04-20T14:32:33.316Z,67.30
2018-04-20T14:35:00.894Z,67.30
2018-04-20T14:37:28.503Z,67.40
2018-04-20T14:39:56.947Z,67.80
2018-04-20T14:42:24.541Z,67.40
2018-04-20T14:44:52.131Z,67.40
2018-04-20T14:47:19.703Z,67.10
2018-04-20T14:49:47.287Z,67.50
2018-04-20T14:52:14.884Z,67.50
2018-04-20T14:54:42.557Z,67.60
2018-04-20T14:57:10.926Z,67.60
2018-04-20T14:59:38.576Z,67.60
2018-04-20T15:02:06.188Z,67.60
2018-04-20T15:04:33.768Z,67.60
2018-04-20T15:07:01.347Z,67.70
2018-04-20T15:09:28.960Z,67.60
2018-04-20T15:11:57.045Z,67.70
2018-04-20T15:14:25.531Z,67.70
2018-04-20T15:16:53.312Z,67.70
2018-04-20T15:19:20.999Z,67.70
2018-04-20T15:21:48.698Z,67.70
2018-04-20T15:24:17.235Z,67.70
2018-04-20T15:26:45.112Z,67.80
2018-04-20T15:29:12.758Z,67.80
2018-04-20T15:31:40.373Z,67.80
2018-04-20T15:34:09.993Z,67.90
2018-04-20T15:36:39.176Z,67.90
2018-04-20T15:39:08.092Z,67.90
2018-04-20T15:41:35.736Z,67.90
2018-04-20T15:44:04.083Z,68.00
2018-04-20T15:46:31.671Z,67.90
2018-04-20T15:49:00.193Z,68.10
2018-04-20T15:51:27.772Z,67.90
2018-04-20T15:53:55.340Z,68.00
2018-04-20T15:56:22.924Z,68.00
2018-04-20T15:58:50.497Z,68.10
2018-04-20T16:01:18.087Z,68.10
2018-04-20T16:03:45.726Z,68.10
2018-04-20T16:06:14.059Z,69.00
2018-04-20T16:08:41.640Z,68.20
2018-04-20T16:11:10.251Z,68.20
2018-04-20T16:13:38.596Z,69.00
2018-04-20T16:16:06.197Z,68.20
2018-04-20T16:18:34.533Z,68.30
2018-04-20T16:21:02.107Z,68.20
2018-04-20T16:23:29.693Z,68.30
2018-04-20T16:25:58.041Z,68.30
2018-04-20T16:28:25.777Z,68.30
2018-04-20T16:30:53.369Z,68.20
2018-04-20T16:33:20.981Z,68.30
2018-04-20T16:35:48.529Z,68.30
2018-04-20T16:38:16.863Z,68.40
2018-04-20T16:40:44.428Z,68.40
2018-04-20T16:43:12.164Z,68.40
2018-04-20T16:45:39.868Z,68.40
2018-04-20T16:48:08.188Z,68.40
2018-04-20T16:50:35.790Z,68.50
2018-04-20T16:53:03.429Z,68.50
2018-04-20T16:55:31.033Z,68.50
2018-04-20T16:57:58.611Z,68.50
2018-04-20T17:00:26.214Z,68.50
2018-04-20T17:02:53.799Z,69.60
2018-04-20T17:05:21.387Z,68.60
2018-04-20T17:07:49.076Z,68.60
2018-04-20T17:10:17.649Z,68.50
2018-04-20T17:12:45.998Z,68.60
2018-04-20T17:15:13.595Z,68.50
2018-04-20T17:17:41.973Z,68.70
2018-04-20T17:20:10.310Z,68.60
2018-04-20T17:22:38.896Z,68.60
2018-04-20T17:25:06.525Z,68.60
2018-04-20T17:27:34.869Z,68.70
2018-04-20T17:30:02.571Z,68.70
2018-04-20T17:32:30.214Z,68.70
2018-04-20T17:34:58.556Z,68.70
2018-04-20T17:37:26.130Z,68.70
2018-04-20T17:39:55.216Z,68.80
2018-04-20T17:42:22.919Z,68.70
2018-04-20T17:44:50.501Z,68.70
2018-04-20T17:47:18.076Z,68.80
2018-04-20T17:49:45.692Z,68.70
2018-04-20T17:52:14.034Z,68.80
2018-04-20T17:54:41.602Z,68.80
2018-04-20T17:57:10.216Z,68.70
2018-04-20T17:59:38.617Z,68.80
2018-04-20T18:02:06.258Z,68.80
2018-04-20T18:04:34.617Z,68.80
2018-04-20T18:07:02.309Z,68.80
2018-04-20T18:09:29.934Z,68.80
2018-04-20T18:11:57.516Z,68.80
2018-04-20T18:14:25.107Z,68.80
2018-04-20T18:16:52.760Z,69.20
2018-04-20T18:19:21.096Z,68.70
2018-04-20T18:21:48.695Z,68.70
2018-04-20T18:24:17.068Z,68.80
2018-04-20T18:26:45.409Z,68.90
2018-04-20T18:29:12.992Z,68.80
2018-04-20T18:31:40.597Z,68.80
2018-04-20T18:34:09.368Z,68.80
2018-04-20T18:36:38.167Z,68.90
2018-04-20T18:39:06.544Z,68.80
2018-04-20T18:41:34.139Z,68.90
2018-04-20T18:44:01.722Z,68.90
2018-04-20T18:46:29.432Z,68.80
2018-04-20T18:48:57.780Z,68.90
2018-04-20T18:51:25.494Z,68.90
2018-04-20T18:53:53.068Z,68.80
2018-04-20T18:56:20.650Z,68.90
2018-04-20T18:58:48.230Z,68.90
2018-04-20T19:01:15.816Z,68.90
2018-04-20T19:03:44.157Z,69.00
2018-04-20T19:06:11.746Z,69.00
2018-04-20T19:08:40.133Z,69.00
2018-04-20T19:11:08.547Z,69.00
2018-04-20T19:13:36.182Z,69.00
2018-04-20T19:16:04.527Z,69.00
2018-04-20T19:18:32.224Z,69.10
2018-04-20T19:20:59.812Z,69.10
2018-04-20T19:23:27.851Z,69.10
2018-04-20T19:25:56.252Z,69.10
2018-04-20T19:28:23.845Z,69.00
2018-04-20T19:30:51.544Z,69.10
2018-04-20T19:33:19.902Z,69.10
2018-04-20T19:35:47.511Z,69.10
2018-04-20T19:38:15.120Z,69.10
2018-04-20T19:40:42.728Z,69.10
2018-04-20T19:43:10.539Z,69.10
2018-04-20T19:45:39.579Z,69.10
2018-04-20T19:48:08.987Z,69.10
2018-04-20T19:50:38.093Z,69.10
2018-04-20T19:53:05.691Z,69.10
2018-04-20T19:55:33.275Z,69.10
2018-04-20T19:58:00.871Z,69.20
2018-04-20T20:00:29.238Z,69.20
2018-04-20T20:02:56.844Z,69.10
2018-04-20T20:05:24.425Z,69.20
2018-04-20T20:07:52.023Z,69.20
2018-04-20T20:10:20.382Z,69.10
2018-04-20T20:12:47.967Z,69.10
2018-04-20T20:15:16.313Z,69.10
2018-04-20T20:17:43.898Z,69.10
2018-04-20T20:20:13.014Z,69.20
2018-04-20T20:22:41.415Z,69.10
2018-04-20T20:25:10.204Z,69.10
2018-04-20T20:27:38.958Z,69.10
2018-04-20T20:30:06.541Z,69.20
2018-04-20T20:32:34.875Z,69.20
2018-04-20T20:35:02.467Z,69.20
2018-04-20T20:37:30.836Z,69.20
2018-04-20T20:39:58.526Z,69.30
2018-04-20T20:42:26.099Z,69.20
2018-04-20T20:44:53.695Z,69.20
2018-04-20T20:47:21.267Z,69.20
2018-04-20T20:49:48.841Z,69.30
2018-04-20T20:52:16.539Z,69.20
2018-04-20T20:54:44.120Z,69.30
2018-04-20T20:57:11.694Z,69.30
2018-04-20T20:59:40.827Z,69.20
2018-04-20T21:02:08.947Z,69.10
2018-04-20T21:04:36.603Z,69.30
2018-04-20T21:07:04.263Z,69.10
2018-04-20T21:09:31.916Z,69.20
2018-04-20T21:12:00.263Z,69.20
2018-04-20T21:14:27.832Z,69.20
2018-04-20T21:16:55.407Z,69.10
2018-04-20T21:19:23.755Z,69.20
2018-04-20T21:21:51.439Z,69.20
2018-04-20T21:24:19.831Z,70.00
2018-04-20T21:26:48.206Z,69.30
2018-04-20T21:29:16.557Z,69.30
2018-04-20T21:31:45.356Z,69.20
2018-04-20T21:34:12.933Z,69.30
2018-04-20T21:36:41.409Z,70.00
2018-04-20T21:41:18.968Z,69.10
2018-04-20T21:43:46.538Z,69.20
2018-04-20T21:46:14.107Z,69.30
2018-04-20T21:48:41.677Z,69.30
2018-04-20T21:51:10.599Z,69.30
2018-04-20T21:53:40.159Z,69.60
2018-04-20T21:56:08.398Z,69.30
2018-04-20T21:58:36.008Z,69.30
2018-04-20T22:01:03.580Z,69.30
2018-04-20T22:03:31.148Z,69.30
2018-04-20T22:05:58.732Z,69.20
2018-04-20T22:08:27.113Z,69.30
2018-04-20T22:10:55.493Z,69.30
2018-04-20T22:13:23.873Z,69.30
2018-04-20T22:15:52.248Z,69.30
2018-04-20T22:18:19.820Z,69.20
2018-04-20T22:20:48.192Z,69.20
2018-04-20T22:23:16.529Z,69.30
2018-04-20T22:25:44.144Z,69.30
2018-04-20T22:28:12.511Z,69.20
2018-04-20T22:30:40.849Z,69.70
2018-04-20T22:33:09.335Z,69.30
2018-04-20T22:35:36.905Z,69.20
2018-04-20T22:38:04.472Z,69.20
2018-04-20T22:40:32.157Z,69.30
2018-04-20T22:43:00.537Z,69.70
2018-04-20T22:45:28.920Z,69.30
2018-04-20T22:47:57.299Z,69.30
2018-04-20T22:50:25.685Z,69.30
2018-04-20T22:52:54.017Z,69.40
2018-04-20T22:55:21.625Z,69.30
2018-04-20T22:57:50.049Z,69.40
2018-04-20T23:00:22.458Z,69.30
2018-04-20T23:02:50.130Z,69.10
2018-04-20T23:05:17.804Z,69.30
2018-04-20T23:07:46.184Z,69.20
2018-04-20T23:10:14.520Z,69.20
2018-04-20T23:12:42.097Z,69.20
2018-04-20T23:15:09.663Z,69.20
2018-04-20T23:17:37.240Z,69.40
2018-04-20T23:20:04.912Z,69.40
2018-04-20T23:22:33.288Z,69.40
2018-04-20T23:25:01.673Z,69.30
2018-04-20T23:27:30.049Z,69.20
2018-04-20T23:29:58.391Z,69.40
2018-04-20T23:32:25.992Z,69.30
2018-04-20T23:34:54.328Z,69.40
2018-04-20T23:37:21.932Z,69.20
2018-04-20T23:39:50.313Z,69.20
2018-04-20T23:42:18.651Z,69.20
2018-04-20T23:44:46.254Z,69.20
2018-04-20T23:47:14.637Z,69.30
2018-04-20T23:49:43.008Z,69.20
2018-04-20T23:52:10.584Z,69.20
2018-04-20T23:54:40.071Z,69.20
2018-04-20T23:57:09.340Z,69.30
2018-04-20T23:59:36.916Z,69.20
